createdAt,value
2022-08-26T00:01:54.402Z,92.65
2022-08-26T00:04:26.004Z,92.79
2022-08-26T00:06:55.772Z,93.19
2022-08-26T00:09:25.009Z,94.07
2022-08-26T00:11:54.275Z,94.41
2022-08-26T00:14:26.037Z,94.49
2022-08-26T00:16:55.817Z,94.63
2022-08-26T00:19:23.239Z,94.23
2022-08-26T00:21:50.662Z,94.15
2022-08-26T00:24:21.016Z,93.17
2022-08-26T00:26:49.372Z,93.11
2022-08-26T00:29:17.641Z,93.35
2022-08-26T00:31:45.690Z,93.20
2022-08-26T00:34:15.353Z,93.50
2022-08-26T00:36:42.950Z,93.46
2022-08-26T00:39:10.566Z,93.32
2022-08-26T00:41:41.626Z,93.59
2022-08-26T00:44:11.271Z,93.56
2022-08-26T00:46:46.897Z,93.51
2022-08-26T00:49:20.206Z,93.39
2022-08-26T00:51:54.189Z,93.72
2022-08-26T00:54:27.058Z,93.04
2022-08-26T00:57:16.386Z,91.26
2022-08-26T00:59:47.745Z,89.79
2022-08-26T01:02:21.047Z,88.65
2022-08-26T01:04:55.639Z,87.64
2022-08-26T01:07:27.678Z,86.92
2022-08-26T01:09:59.678Z,87.22
2022-08-26T01:12:31.948Z,87.24
2022-08-26T01:14:59.412Z,86.60
2022-08-26T01:17:26.476Z,86.18
2022-08-26T01:20:27.231Z,85.42
2022-08-26T01:23:08.728Z,85.13
2022-08-26T01:25:40.547Z,84.39
2022-08-26T01:28:25.961Z,83.88
2022-08-26T01:30:55.104Z,83.12
2022-08-26T01:33:29.978Z,82.52
2022-08-26T01:36:07.980Z,82.16
2022-08-26T01:38:35.739Z,82.05
2022-08-26T01:41:03.457Z,81.33
2022-08-26T01:43:51.186Z,80.76
2022-08-26T01:46:20.378Z,80.54
2022-08-26T01:48:49.193Z,80.24
2022-08-26T01:51:23.474Z,80.53
2022-08-26T01:53:51.037Z,79.69
2022-08-26T01:56:18.620Z,80.26
2022-08-26T01:58:52.835Z,80.92
2022-08-26T02:01:21.517Z,80.90
2022-08-26T02:03:56.302Z,80.39
2022-08-26T02:06:23.835Z,80.19
2022-08-26T02:08:55.498Z,80.40
2022-08-26T02:11:23.088Z,80.43
2022-08-26T02:13:55.227Z,80.81
2022-08-26T02:16:26.236Z,80.15
2022-08-26T02:18:55.343Z,80.26
2022-08-26T02:21:24.923Z,79.51
2022-08-26T02:23:52.648Z,79.03
2022-08-26T02:26:24.488Z,78.81
2022-08-26T02:29:02.945Z,78.51
2022-08-26T02:31:30.295Z,78.70
2022-08-26T02:34:13.955Z,79.27
2022-08-26T02:36:42.936Z,79.54
2022-08-26T02:39:10.954Z,79.41
2022-08-26T02:41:44.797Z,79.66
2022-08-26T02:44:12.357Z,78.93
2022-08-26T02:46:39.856Z,79.03
2022-08-26T02:49:07.453Z,78.57
2022-08-26T02:51:34.459Z,78.70
2022-08-26T02:54:01.473Z,78.47
2022-08-26T02:56:29.454Z,78.36
2022-08-26T02:58:56.966Z,79.00
2022-08-26T03:01:30.562Z,78.80
2022-08-26T03:03:59.499Z,79.14
2022-08-26T03:06:26.548Z,79.52
2022-08-26T03:08:53.534Z,78.74
2022-08-26T03:11:20.450Z,78.53
2022-08-26T03:13:48.965Z,78.03
2022-08-26T03:16:16.351Z,77.03
2022-08-26T03:18:43.463Z,76.72
2022-08-26T03:21:20.504Z,76.20
2022-08-26T03:23:48.082Z,75.47
2022-08-26T03:26:15.925Z,74.35
2022-08-26T03:29:01.814Z,73.36
2022-08-26T03:31:29.736Z,72.84
2022-08-26T03:33:59.619Z,73.13
2022-08-26T03:36:27.052Z,72.96
2022-08-26T03:38:54.562Z,73.27
2022-08-26T03:41:21.951Z,73.33
2022-08-26T03:43:50.991Z,73.04
2022-08-26T03:46:20.698Z,72.89
2022-08-26T03:48:48.082Z,72.56
2022-08-26T03:51:19.868Z,72.22
2022-08-26T03:53:48.402Z,72.53
2022-08-26T03:56:15.496Z,72.79
2022-08-26T03:58:44.612Z,73.86
2022-08-26T04:01:16.262Z,73.67
2022-08-26T04:04:00.269Z,73.36
2022-08-26T04:06:36.306Z,73.48
2022-08-26T04:09:06.921Z,73.62
2022-08-26T04:11:38.663Z,73.26
2022-08-26T04:14:17.721Z,73.50
2022-08-26T04:16:47.883Z,73.42
2022-08-26T04:19:16.057Z,73.27
2022-08-26T04:21:43.534Z,73.14
2022-08-26T04:24:12.322Z,72.56
2022-08-26T04:26:42.860Z,72.40
2022-08-26T04:29:18.238Z,72.50
2022-08-26T04:31:48.227Z,71.97
2022-08-26T04:34:16.036Z,70.90
2022-08-26T04:36:44.766Z,69.94
2022-08-26T04:39:16.616Z,68.62
2022-08-26T04:41:46.427Z,68.62
2022-08-26T04:44:13.870Z,67.95
2022-08-26T04:46:43.905Z,67.66
2022-08-26T04:49:11.499Z,67.29
2022-08-26T04:51:39.198Z,66.84
2022-08-26T04:54:07.382Z,67.07
2022-08-26T04:56:38.540Z,67.77
2022-08-26T04:59:16.612Z,67.86
2022-08-26T05:01:49.505Z,68.10
2022-08-26T05:04:18.916Z,68.99
2022-08-26T05:06:47.296Z,68.86
2022-08-26T05:09:15.191Z,68.71
2022-08-26T05:11:42.429Z,69.26
2022-08-26T05:14:09.816Z,68.82
2022-08-26T05:16:37.841Z,69.00
2022-08-26T05:19:08.597Z,68.76
2022-08-26T05:21:36.533Z,68.76
2022-08-26T05:24:04.793Z,67.61
2022-08-26T05:26:32.092Z,67.74
2022-08-26T05:28:59.090Z,66.95
2022-08-26T05:31:30.382Z,66.66
2022-08-26T05:33:58.037Z,66.38
2022-08-26T05:36:28.026Z,65.95
2022-08-26T05:38:55.922Z,65.54
2022-08-26T05:41:34.514Z,65.47
2022-08-26T05:44:06.206Z,64.76
2022-08-26T05:46:34.475Z,64.45
2022-08-26T05:49:01.894Z,63.88
2022-08-26T05:51:30.420Z,63.43
2022-08-26T05:53:58.688Z,62.57
2022-08-26T05:56:27.772Z,61.88
2022-08-26T05:58:58.431Z,61.00
2022-08-26T06:01:27.587Z,59.92
2022-08-26T06:04:01.771Z,59.45
2022-08-26T06:06:36.002Z,58.35
2022-08-26T06:09:05.825Z,57.90
2022-08-26T06:11:33.484Z,57.80
2022-08-26T06:14:04.225Z,55.96
2022-08-26T06:16:34.875Z,56.17
2022-08-26T06:19:10.538Z,54.99
2022-08-26T06:21:40.236Z,54.44
2022-08-26T06:24:29.585Z,53.68
2022-08-26T06:27:01.609Z,53.30
2022-08-26T06:29:31.200Z,52.08
2022-08-26T06:31:58.739Z,50.47
2022-08-26T06:34:30.656Z,51.04
2022-08-26T06:37:02.434Z,48.95
2022-08-26T06:39:30.941Z,48.18
2022-08-26T06:42:02.544Z,48.03
2022-08-26T06:44:34.289Z,46.63
2022-08-26T06:47:01.596Z,46.06
2022-08-26T06:49:28.637Z,45.96
2022-08-26T06:51:59.897Z,45.62
2022-08-26T06:54:32.330Z,45.72
2022-08-26T06:56:59.878Z,44.97
2022-08-26T06:59:26.975Z,45.09
2022-08-26T07:01:55.191Z,45.66
2022-08-26T07:04:23.390Z,45.67
2022-08-26T07:06:52.367Z,46.08
2022-08-26T07:09:21.903Z,46.35
2022-08-26T07:11:49.750Z,46.19
2022-08-26T07:14:19.296Z,46.90
2022-08-26T07:16:48.717Z,47.05
2022-08-26T07:19:17.579Z,46.31
2022-08-26T07:21:55.967Z,46.58
2022-08-26T07:24:22.998Z,46.41
2022-08-26T07:26:50.243Z,47.15
2022-08-26T07:29:18.724Z,47.65
2022-08-26T07:31:46.408Z,48.21
2022-08-26T07:34:14.029Z,48.00
2022-08-26T07:36:41.520Z,48.01
2022-08-26T07:39:09.063Z,48.50
2022-08-26T07:41:36.754Z,48.17
2022-08-26T07:44:04.355Z,48.16
2022-08-26T07:46:31.765Z,47.93
2022-08-26T07:48:58.839Z,48.16
2022-08-26T07:51:26.381Z,47.90
2022-08-26T07:53:54.827Z,48.01
2022-08-26T07:56:23.483Z,48.08
2022-08-26T07:58:52.965Z,47.72
2022-08-26T08:01:21.558Z,47.76
2022-08-26T08:03:51.652Z,47.79
2022-08-26T08:06:20.117Z,47.98
2022-08-26T08:08:47.901Z,47.99
2022-08-26T08:11:21.577Z,48.45
2022-08-26T08:13:56.571Z,48.20
2022-08-26T08:16:32.240Z,48.75
2022-08-26T08:19:00.431Z,49.15
2022-08-26T08:21:28.308Z,49.26
2022-08-26T08:23:57.484Z,49.37
2022-08-26T08:26:25.923Z,49.53
2022-08-26T08:28:57.953Z,49.62
2022-08-26T08:31:55.945Z,49.39
2022-08-26T08:34:15.938Z,49.33
2022-08-26T08:36:46.476Z,49.07
2022-08-26T08:39:13.910Z,48.54
2022-08-26T08:41:48.685Z,48.77
2022-08-26T08:44:21.508Z,48.30
2022-08-26T08:47:00.897Z,47.86
2022-08-26T08:49:29.343Z,48.90
2022-08-26T08:52:05.578Z,48.71
2022-08-26T08:54:33.855Z,49.24
2022-08-26T08:57:17.109Z,49.88
2022-08-26T08:59:54.396Z,49.40
2022-08-26T09:02:29.369Z,49.87
2022-08-26T09:05:28.629Z,49.49
2022-08-26T09:07:58.658Z,48.87
2022-08-26T09:10:36.729Z,48.02
2022-08-26T09:13:09.432Z,48.71
2022-08-26T09:15:46.714Z,48.25
2022-08-26T09:18:22.762Z,45.92
2022-08-26T09:20:59.988Z,45.34
2022-08-26T09:23:27.432Z,44.16
2022-08-26T09:26:03.662Z,43.84
2022-08-26T09:28:32.066Z,43.64
2022-08-26T09:31:32.862Z,43.03
2022-08-26T09:34:26.475Z,42.94
2022-08-26T09:36:55.156Z,43.22
2022-08-26T09:39:27.963Z,43.41
2022-08-26T09:42:07.193Z,43.33
2022-08-26T10:17:16.973Z,42.66
2022-08-26T10:19:57.862Z,42.30
2022-08-26T10:22:36.929Z,41.35
2022-08-26T10:25:09.154Z,41.76
2022-08-26T10:27:55.031Z,40.97
2022-08-26T10:30:28.010Z,40.41
2022-08-26T10:33:04.869Z,40.69
2022-08-26T10:35:33.539Z,40.64
2022-08-26T10:38:12.120Z,39.87
2022-08-26T10:40:43.130Z,39.61
2022-08-26T10:43:17.966Z,39.77
2022-08-26T10:45:59.378Z,39.54
2022-08-26T10:48:59.985Z,39.62
2022-08-26T10:51:35.644Z,39.65
2022-08-26T10:54:09.460Z,39.53
2022-08-26T10:56:44.767Z,39.32
2022-08-26T10:59:21.502Z,39.39
2022-08-26T11:02:00.225Z,39.30
2022-08-26T11:04:37.172Z,39.42
2022-08-26T11:07:32.132Z,39.64
2022-08-26T11:10:23.006Z,40.03
2022-08-26T11:13:00.864Z,40.14
2022-08-26T11:15:29.337Z,40.06
2022-08-26T11:18:08.976Z,40.40
2022-08-26T11:20:36.200Z,40.75
2022-08-26T11:23:22.575Z,40.97
2022-08-26T11:26:07.743Z,41.26
2022-08-26T11:28:44.913Z,41.17
2022-08-26T11:31:27.463Z,41.04
2022-08-26T11:34:00.169Z,41.43
2022-08-26T11:36:45.538Z,40.91
2022-08-26T11:39:30.431Z,40.93
2022-08-26T11:42:14.415Z,40.24
2022-08-26T11:44:49.598Z,39.34
2022-08-26T11:47:25.103Z,40.07
2022-08-26T11:50:07.524Z,40.07
2022-08-26T11:52:34.535Z,40.20
2022-08-26T11:55:11.778Z,40.16
2022-08-26T11:57:46.515Z,40.04
2022-08-26T12:00:26.563Z,40.15
2022-08-26T12:02:55.727Z,40.30
2022-08-26T12:05:29.540Z,39.63
2022-08-26T12:08:06.271Z,39.82
2022-08-26T12:10:35.232Z,40.12
2022-08-26T12:13:03.709Z,40.32
2022-08-26T12:15:32.333Z,40.21
2022-08-26T12:18:18.106Z,40.14
2022-08-26T12:20:56.844Z,40.42
2022-08-26T12:23:25.549Z,40.86
2022-08-26T12:26:03.117Z,40.81
2022-08-26T12:28:31.267Z,41.14
2022-08-26T12:31:03.704Z,41.36
2022-08-26T12:33:36.513Z,42.11
2022-08-26T12:36:06.110Z,42.57
2022-08-26T12:38:36.955Z,42.37
2022-08-26T12:41:04.222Z,42.06
2022-08-26T12:43:43.701Z,42.42
2022-08-26T12:46:16.408Z,43.23
2022-08-26T12:48:47.595Z,43.13
2022-08-26T12:51:30.267Z,43.00
2022-08-26T12:53:58.128Z,43.10
2022-08-26T12:56:41.176Z,42.88
2022-08-26T12:59:26.319Z,42.76
2022-08-26T13:01:55.059Z,43.14
2022-08-26T13:04:31.784Z,42.99
2022-08-26T13:07:22.487Z,42.94
2022-08-26T13:09:52.146Z,43.24
2022-08-26T13:12:32.711Z,43.07
2022-08-26T13:15:01.566Z,42.92
2022-08-26T13:17:30.356Z,42.78
2022-08-26T13:20:03.297Z,42.86
2022-08-26T13:22:30.931Z,42.78
2022-08-26T13:24:58.079Z,42.66
2022-08-26T13:27:27.287Z,42.57
2022-08-26T13:29:57.163Z,42.97
2022-08-26T13:32:26.891Z,43.52
2022-08-26T13:34:56.366Z,43.08
2022-08-26T13:37:34.178Z,43.47
2022-08-26T13:40:06.494Z,43.63
2022-08-26T13:42:34.520Z,43.26
2022-08-26T13:45:02.339Z,43.15
2022-08-26T13:47:29.683Z,43.26
2022-08-26T13:49:56.663Z,43.22
2022-08-26T13:52:27.338Z,42.75
2022-08-26T13:54:58.763Z,42.49
2022-08-26T13:57:28.027Z,42.70
2022-08-26T13:59:56.598Z,42.80
2022-08-26T14:02:23.697Z,43.27
2022-08-26T14:04:50.767Z,42.94
2022-08-26T14:07:17.710Z,43.40
2022-08-26T14:09:44.644Z,43.30
2022-08-26T14:12:11.739Z,43.06
2022-08-26T14:14:38.686Z,43.29
2022-08-26T14:17:06.980Z,43.25
2022-08-26T14:19:34.062Z,43.39
2022-08-26T14:22:01.825Z,43.20
2022-08-26T14:24:29.548Z,43.22
2022-08-26T14:26:56.579Z,42.99
2022-08-26T14:29:23.487Z,42.99
2022-08-26T14:31:50.424Z,42.82
2022-08-26T14:34:17.470Z,43.57
2022-08-26T14:36:44.416Z,44.07
2022-08-26T14:39:13.855Z,44.13
2022-08-26T14:41:53.719Z,43.55
2022-08-26T14:44:23.923Z,43.42
2022-08-26T14:46:53.004Z,43.26
2022-08-26T14:49:22.198Z,42.78
2022-08-26T14:51:49.908Z,42.64
2022-08-26T14:54:18.229Z,42.50
2022-08-26T14:57:01.092Z,42.53
2022-08-26T14:59:34.087Z,42.61
2022-08-26T15:02:01.852Z,42.35
2022-08-26T15:04:28.991Z,42.82
2022-08-26T15:06:58.822Z,42.56
2022-08-26T15:09:28.014Z,42.84
2022-08-26T15:11:55.172Z,42.97
2022-08-26T15:14:23.227Z,42.82
2022-08-26T15:16:53.294Z,42.97
2022-08-26T15:19:21.135Z,42.96
2022-08-26T15:21:48.145Z,43.02
2022-08-26T15:24:17.610Z,43.14
2022-08-26T15:26:45.819Z,43.26
2022-08-26T15:29:13.056Z,43.37
2022-08-26T15:31:40.539Z,43.96
2022-08-26T15:34:14.583Z,46.25
2022-08-26T15:36:46.036Z,48.58
2022-08-26T15:39:13.466Z,49.33
2022-08-26T15:41:40.622Z,49.50
2022-08-26T15:44:08.495Z,49.60
2022-08-26T15:46:37.532Z,49.63
2022-08-26T15:49:06.057Z,50.84
2022-08-26T15:51:45.116Z,50.87
2022-08-26T15:54:16.753Z,50.27
2022-08-26T15:56:44.104Z,49.08
2022-08-26T15:59:12.052Z,48.31
2022-08-26T16:01:39.790Z,48.01
2022-08-26T16:04:07.272Z,47.25
2022-08-26T16:06:36.430Z,46.79
2022-08-26T16:09:04.553Z,46.02
2022-08-26T16:11:31.637Z,45.45
2022-08-26T16:13:58.698Z,45.38
2022-08-26T16:16:26.463Z,45.33
2022-08-26T16:18:53.824Z,45.20
2022-08-26T16:21:24.750Z,45.67
2022-08-26T16:23:52.267Z,46.38
2022-08-26T16:26:22.840Z,46.98
2022-08-26T16:28:49.987Z,46.86
2022-08-26T16:31:17.541Z,46.90
2022-08-26T16:33:44.481Z,46.70
2022-08-26T16:36:12.170Z,46.71
2022-08-26T16:38:40.729Z,46.93
2022-08-26T16:41:09.159Z,46.69
2022-08-26T16:43:36.849Z,47.00
2022-08-26T16:46:07.201Z,47.12
2022-08-26T16:48:35.067Z,47.29
2022-08-26T16:51:02.052Z,47.96
2022-08-26T16:53:29.128Z,48.20
2022-08-26T16:55:56.055Z,48.51
2022-08-26T16:58:23.128Z,48.54
2022-08-26T17:00:50.150Z,49.02
2022-08-26T17:03:17.899Z,49.16
2022-08-26T17:05:44.975Z,49.23
2022-08-26T17:08:14.522Z,49.26
2022-08-26T17:10:51.790Z,49.00
2022-08-26T17:13:29.697Z,49.00
2022-08-26T17:16:05.065Z,48.89
2022-08-26T17:18:33.556Z,48.50
2022-08-26T17:21:12.837Z,48.46
2022-08-26T17:23:41.807Z,48.00
2022-08-26T17:26:10.920Z,48.09
2022-08-26T17:28:38.270Z,47.60
2022-08-26T17:31:06.736Z,47.75
2022-08-26T17:33:33.748Z,47.29
2022-08-26T17:36:00.978Z,47.10
2022-08-26T17:38:29.307Z,46.44
2022-08-26T17:40:57.584Z,46.25
2022-08-26T17:43:26.834Z,45.64
2022-08-26T17:46:07.069Z,46.06
2022-08-26T17:48:36.220Z,45.49
2022-08-26T17:51:11.242Z,45.68
2022-08-26T17:53:38.941Z,53.18
2022-08-26T17:56:08.325Z,56.25
2022-08-26T17:58:35.784Z,59.09
2022-08-26T18:01:03.197Z,60.04
2022-08-26T18:03:30.196Z,61.18
2022-08-26T18:05:57.533Z,63.25
2022-08-26T18:08:24.811Z,64.55
2022-08-26T18:10:51.850Z,65.32
2022-08-26T18:13:19.122Z,67.20
2022-08-26T18:15:47.335Z,69.11
2022-08-26T18:18:15.382Z,70.16
2022-08-26T18:20:44.103Z,73.46
2022-08-26T18:23:12.537Z,75.88
2022-08-26T18:25:41.828Z,77.65
2022-08-26T18:28:09.242Z,79.06
2022-08-26T18:30:36.390Z,80.38
2022-08-26T18:33:03.572Z,79.58
2022-08-26T18:35:30.716Z,79.69
2022-08-26T18:38:00.825Z,81.39
2022-08-26T18:40:39.843Z,82.48
2022-08-26T18:43:07.071Z,83.04
2022-08-26T18:45:34.670Z,84.80
2022-08-26T18:48:03.767Z,85.81
2022-08-26T18:50:30.866Z,86.31
2022-08-26T18:52:57.794Z,87.21
2022-08-26T18:55:24.927Z,87.66
2022-08-26T18:57:51.901Z,89.67
2022-08-26T19:00:18.940Z,90.94
2022-08-26T19:02:47.069Z,91.44
2022-08-26T19:05:19.921Z,89.78
2022-08-26T19:07:47.990Z,87.95
2022-08-26T19:10:15.130Z,88.42
2022-08-26T19:12:42.529Z,88.10
2022-08-26T19:15:11.297Z,83.58
2022-08-26T19:17:38.250Z,79.35
2022-08-26T19:20:06.035Z,77.97
2022-08-26T19:22:33.314Z,76.83
2022-08-26T19:25:00.919Z,77.24
2022-08-26T19:27:28.055Z,76.34
2022-08-26T19:29:57.436Z,76.10
2022-08-26T19:32:25.386Z,76.38
2022-08-26T19:34:52.820Z,78.67
2022-08-26T19:37:20.488Z,82.50
2022-08-26T19:39:47.888Z,87.31
2022-08-26T19:42:14.837Z,92.53
2022-08-26T19:45:00.398Z,95.80
2022-08-26T19:47:27.453Z,97.00
2022-08-26T19:49:55.605Z,97.09
2022-08-26T19:52:24.438Z,93.15
2022-08-26T19:54:57.390Z,87.15
2022-08-26T19:57:24.512Z,85.27
2022-08-26T19:59:51.486Z,84.34
2022-08-26T20:02:19.355Z,85.81
2022-08-26T20:04:46.357Z,87.26
2022-08-26T20:07:18.527Z,87.50
2022-08-26T20:09:47.088Z,86.20
2022-08-26T20:12:15.251Z,85.79
2022-08-26T20:14:42.640Z,86.19
2022-08-26T20:17:09.678Z,84.64
2022-08-26T20:19:55.152Z,82.94
2022-08-26T20:22:22.483Z,84.49
2022-08-26T20:24:49.843Z,84.16
2022-08-26T20:27:16.779Z,87.69
2022-08-26T20:29:43.750Z,88.16
2022-08-26T20:32:12.089Z,85.57
2022-08-26T20:34:40.087Z,83.92
2022-08-26T20:37:08.561Z,85.35
2022-08-26T20:39:35.853Z,85.23
2022-08-26T20:42:03.378Z,89.92
2022-08-26T20:44:30.615Z,90.31
2022-08-26T20:46:59.251Z,91.48
2022-08-26T20:49:27.794Z,93.36
2022-08-26T20:51:55.137Z,94.79
2022-08-26T20:54:28.270Z,95.66
2022-08-26T20:56:57.000Z,94.66
2022-08-26T20:59:24.572Z,95.69
2022-08-26T21:01:52.031Z,97.30
2022-08-26T21:04:22.764Z,98.29
2022-08-26T21:06:52.712Z,97.26
2022-08-26T21:09:22.545Z,100.00
2022-08-26T21:11:50.118Z,100.00
2022-08-26T21:14:17.824Z,100.00
2022-08-26T21:16:46.087Z,100.00
2022-08-26T21:19:15.394Z,95.26
2022-08-26T21:21:42.602Z,91.60
2022-08-26T21:24:10.237Z,98.12
2022-08-26T21:26:37.320Z,100.00
2022-08-26T21:29:05.076Z,97.00
2022-08-26T21:31:32.306Z,95.19
2022-08-26T21:33:59.911Z,100.00
2022-08-26T21:36:27.268Z,100.00
2022-08-26T21:38:58.198Z,100.00
2022-08-26T21:41:25.880Z,100.00
2022-08-26T21:43:55.718Z,100.00
2022-08-26T21:46:24.025Z,100.00
2022-08-26T21:49:00.565Z,100.00
2022-08-26T21:51:31.096Z,100.00
2022-08-26T21:53:59.640Z,100.00
2022-08-26T21:56:29.278Z,100.00
2022-08-26T21:58:56.802Z,100.00
2022-08-26T22:01:26.934Z,100.00
2022-08-26T22:03:54.653Z,100.00
2022-08-26T22:06:26.146Z,100.00
2022-08-26T22:08:54.125Z,100.00
2022-08-26T22:11:21.591Z,100.00
2022-08-26T22:13:49.004Z,100.00
2022-08-26T22:16:16.956Z,100.00
2022-08-26T22:18:45.855Z,100.00
2022-08-26T22:21:19.373Z,100.00
2022-08-26T22:23:46.858Z,100.00
2022-08-26T22:26:25.200Z,100.00
2022-08-26T22:28:54.818Z,100.00
2022-08-26T22:31:28.098Z,100.00
2022-08-26T22:34:07.159Z,100.00
2022-08-26T22:36:34.195Z,100.00
2022-08-26T22:39:01.253Z,100.00
2022-08-26T22:41:28.301Z,100.00
2022-08-26T22:43:55.505Z,100.00
2022-08-26T22:46:25.538Z,100.00
2022-08-26T22:48:53.923Z,100.00
2022-08-26T22:51:22.180Z,100.00
2022-08-26T22:53:49.505Z,100.00
2022-08-26T22:56:18.428Z,100.00
2022-08-26T22:58:45.740Z,100.00
2022-08-26T23:01:13.368Z,100.00
2022-08-26T23:03:40.416Z,100.00
2022-08-26T23:06:10.266Z,100.00
2022-08-26T23:08:38.937Z,100.00
2022-08-26T23:11:10.747Z,100.00
2022-08-26T23:13:38.714Z,100.00
2022-08-26T23:16:09.873Z,100.00
2022-08-26T23:18:37.458Z,100.00
2022-08-26T23:21:05.036Z,100.00
2022-08-26T23:23:32.878Z,100.00
2022-08-26T23:26:03.239Z,100.00
2022-08-26T23:28:32.593Z,100.00
2022-08-26T23:30:59.764Z,100.00
2022-08-26T23:33:46.652Z,100.00
2022-08-26T23:36:17.875Z,100.00
2022-08-26T23:38:52.915Z,100.00
2022-08-26T23:41:22.942Z,100.00
2022-08-26T23:43:51.660Z,100.00
2022-08-26T23:46:19.273Z,100.00
2022-08-26T23:48:46.631Z,100.00
2022-08-26T23:51:31.981Z,100.00
2022-08-26T23:53:59.001Z,100.00
2022-08-26T23:56:26.742Z,100.00
2022-08-26T23:58:54.607Z,100.00
